Kinkaid, Illinois
Current Conditions -  °F | °C
As of 1:52 AM on Saturday 29 Nov 2014 (Local Time) from KMDH Reporting Station
Clear Clear  
Wind Chill: 36°   Ceiling: Unl
Heat Index: 44°   Visibility: 10mi
Dew Point: 30°   Wind: 21mph
Humidity: 58%   Direction: 200°SSW
Pressure: 29.95"   Gusts: NA
Location:  37.8835°N, 89.4465°W
Report Text: KMDH 290752Z AUTO 20018KT 10SM CLR 07/M01 A2995 RMK AO2 SLP143 T00671011
Loading
Personal Weather Stations






























Interactive Weather Map New forecast layout! Learn more

10-Day Weather Forecast

Advertisements
Track Severe Weather on mobile